sensor_id;sensor_type;location;lat;lon;timestamp;pressure;altitude;pressure_sealevel;temperature;humidity
59513;BME280;45330;51.634;5.562;2023-04-23T00:00:09;100727.16;;;6.98;100.00
59513;BME280;45330;51.634;5.562;2023-04-23T00:02:37;100712.44;;;6.92;100.00
59513;BME280;45330;51.634;5.562;2023-04-23T00:05:04;100690.81;;;6.81;100.00
59513;BME280;45330;51.634;5.562;2023-04-23T00:07:32;100705.53;;;6.90;100.00
59513;BME280;45330;51.634;5.562;2023-04-23T00:09:58;100707.22;;;6.86;100.00
59513;BME280;45330;51.634;5.562;2023-04-23T00:12:24;100710.63;;;6.82;100.00
59513;BME280;45330;51.634;5.562;2023-04-23T00:14:50;100698.56;;;6.81;100.00
59513;BME280;45330;51.634;5.562;2023-04-23T00:17:15;100701.13;;;6.78;100.00
59513;BME280;45330;51.634;5.562;2023-04-23T00:19:40;100677.78;;;6.68;100.00
59513;BME280;45330;51.634;5.562;2023-04-23T00:22:06;100669.09;;;6.59;100.00
59513;BME280;45330;51.634;5.562;2023-04-23T00:24:31;100694.22;;;6.77;100.00
59513;BME280;45330;51.634;5.562;2023-04-23T00:27:00;100683.88;;;6.74;100.00
59513;BME280;45330;51.634;5.562;2023-04-23T00:29:25;100689.06;;;6.75;100.00
59513;BME280;45330;51.634;5.562;2023-04-23T00:31:51;100695.94;;;6.75;100.00
59513;BME280;45330;51.634;5.562;2023-04-23T00:34:16;100663.06;;;6.58;100.00
59513;BME280;45330;51.634;5.562;2023-04-23T00:36:41;100677.78;;;6.64;100.00
59513;BME280;45330;51.634;5.562;2023-04-23T00:39:07;100678.63;;;6.67;100.00
59513;BME280;45330;51.634;5.562;2023-04-23T00:41:33;100666.53;;;6.60;100.00
59513;BME280;45330;51.634;5.562;2023-04-23T00:43:59;100675.19;;;6.64;100.00
59513;BME280;45330;51.634;5.562;2023-04-23T00:46:25;100664.81;;;6.62;100.00
59513;BME280;45330;51.634;5.562;2023-04-23T00:48:51;100651.75;;;6.47;100.00
59513;BME280;45330;51.634;5.562;2023-04-23T00:51:17;100668.19;;;6.55;100.00
59513;BME280;45330;51.634;5.562;2023-04-23T00:53:42;100646.56;;;6.42;100.00
59513;BME280;45330;51.634;5.562;2023-04-23T00:56:08;100637.91;;;6.35;100.00
59513;BME280;45330;51.634;5.562;2023-04-23T00:58:34;100657.81;;;6.49;100.00
59513;BME280;45330;51.634;5.562;2023-04-23T01:00:59;100640.53;;;6.39;100.00
59513;BME280;45330;51.634;5.562;2023-04-23T01:03:28;100656.09;;;6.48;100.00
59513;BME280;45330;51.634;5.562;2023-04-23T01:05:55;100649.16;;;6.45;100.00
59513;BME280;45330;51.634;5.562;2023-04-23T01:08:22;100657.81;;;6.47;100.00
59513;BME280;45330;51.634;5.562;2023-04-23T01:10:48;100650.91;;;6.48;100.00
59513;BME280;45330;51.634;5.562;2023-04-23T01:13:14;100629.31;;;6.41;100.00
59513;BME280;45330;51.634;5.562;2023-04-23T01:15:39;100655.31;;;6.58;100.00
59513;BME280;45330;51.634;5.562;2023-04-23T01:18:05;100649.28;;;6.59;100.00
59513;BME280;45330;51.634;5.562;2023-04-23T01:20:33;100643.25;;;6.62;100.00
59513;BME280;45330;51.634;5.562;2023-04-23T01:22:58;100643.28;;;6.66;100.00
59513;BME280;45330;51.634;5.562;2023-04-23T01:25:24;100616.53;;;6.58;100.00
59513;BME280;45330;51.634;5.562;2023-04-23T01:27:50;100636.44;;;6.75;100.00
59513;BME280;45330;51.634;5.562;2023-04-23T01:30:15;100600.97;;;6.52;100.00
59513;BME280;45330;51.634;5.562;2023-04-23T01:32:41;100603.56;;;6.57;100.00
59513;BME280;45330;51.634;5.562;2023-04-23T01:35:08;100622.59;;;6.66;100.00
59513;BME280;45330;51.634;5.562;2023-04-23T01:37:34;100607.06;;;6.60;100.00
59513;BME280;45330;51.634;5.562;2023-04-23T01:40:00;100639.91;;;6.74;100.00
59513;BME280;45330;51.634;5.562;2023-04-23T01:42:26;100633.84;;;6.68;100.00
59513;BME280;45330;51.634;5.562;2023-04-23T01:44:51;100613.97;;;6.58;100.00
59513;BME280;45330;51.634;5.562;2023-04-23T01:47:18;100619.97;;;6.54;100.00
59513;BME280;45330;51.634;5.562;2023-04-23T01:49:43;100632.09;;;6.64;100.00
59513;BME280;45330;51.634;5.562;2023-04-23T01:52:09;100616.47;;;6.50;100.00
59513;BME280;45330;51.634;5.562;2023-04-23T01:54:35;100621.66;;;6.52;100.00
59513;BME280;45330;51.634;5.562;2023-04-23T01:57:00;100617.31;;;6.49;100.00
59513;BME280;45330;51.634;5.562;2023-04-23T01:59:27;100611.28;;;6.49;100.00
59513;BME280;45330;51.634;5.562;2023-04-23T02:01:52;100617.38;;;6.57;100.00
59513;BME280;45330;51.634;5.562;2023-04-23T02:04:18;100624.25;;;6.52;100.00
59513;BME280;45330;51.634;5.562;2023-04-23T02:06:45;100624.25;;;6.53;100.00
59513;BME280;45330;51.634;5.562;2023-04-23T02:09:12;100621.66;;;6.52;100.00
59513;BME280;45330;51.634;5.562;2023-04-23T02:11:37;100608.69;;;6.43;100.00
59513;BME280;45330;51.634;5.562;2023-04-23T02:14:04;100621.63;;;6.49;100.00
59513;BME280;45330;51.634;5.562;2023-04-23T02:16:30;100620.72;;;6.45;100.00
59513;BME280;45330;51.634;5.562;2023-04-23T02:18:55;100604.34;;;6.37;100.00
59513;BME280;45330;51.634;5.562;2023-04-23T02:21:22;100612.97;;;6.42;100.00
59513;BME280;45330;51.634;5.562;2023-04-23T02:23:48;100611.22;;;6.41;100.00
59513;BME280;45330;51.634;5.562;2023-04-23T02:26:13;100617.25;;;6.37;100.00
59513;BME280;45330;51.634;5.562;2023-04-23T02:28:39;100613.78;;;6.38;100.00
59513;BME280;45330;51.634;5.562;2023-04-23T02:31:04;100609.47;;;6.35;100.00
59513;BME280;45330;51.634;5.562;2023-04-23T02:33:30;100593.91;;;6.28;100.00
59513;BME280;45330;51.634;5.562;2023-04-23T02:35:56;100585.28;;;6.26;100.00
59513;BME280;45330;51.634;5.562;2023-04-23T02:38:21;100595.69;;;6.33;100.00
59513;BME280;45330;51.634;5.562;2023-04-23T02:40:46;100583.56;;;6.25;100.00
59513;BME280;45330;51.634;5.562;2023-04-23T02:43:12;100586.16;;;6.23;100.00
59513;BME280;45330;51.634;5.562;2023-04-23T02:45:37;100587.00;;;6.25;100.00
59513;BME280;45330;51.634;5.562;2023-04-23T02:48:02;100586.13;;;6.22;100.00
59513;BME280;45330;51.634;5.562;2023-04-23T02:50:28;100583.50;;;6.18;100.00
59513;BME280;45330;51.634;5.562;2023-04-23T02:52:54;100606.88;;;6.32;100.00
59513;BME280;45330;51.634;5.562;2023-04-23T02:55:19;100594.75;;;6.25;100.00
59513;BME280;45330;51.634;5.562;2023-04-23T02:57:45;100606.84;;;6.31;100.00
59513;BME280;45330;51.634;5.562;2023-04-23T03:00:10;100577.50;;;6.20;100.00
59513;BME280;45330;51.634;5.562;2023-04-23T03:02:39;100604.34;;;6.39;100.00
59513;BME280;45330;51.634;5.562;2023-04-23T03:05:04;100611.28;;;6.46;100.00
59513;BME280;45330;51.634;5.562;2023-04-23T03:07:31;100584.50;;;6.34;100.00
59513;BME280;45330;51.634;5.562;2023-04-23T03:09:57;100614.75;;;6.51;100.00
59513;BME280;45330;51.634;5.562;2023-04-23T03:12:22;100613.91;;;6.55;100.00
59513;BME280;45330;51.634;5.562;2023-04-23T03:14:47;100601.03;;;6.58;100.00
59513;BME280;45330;51.634;5.562;2023-04-23T03:17:13;100601.09;;;6.70;100.00
59513;BME280;45330;51.634;5.562;2023-04-23T03:19:38;100601.16;;;6.83;100.00
59513;BME280;45330;51.634;5.562;2023-04-23T03:22:03;100589.13;;;6.86;100.00
59513;BME280;45330;51.634;5.562;2023-04-23T03:24:31;100573.56;;;6.82;100.00
59513;BME280;45330;51.634;5.562;2023-04-23T03:26:57;100593.47;;;7.00;100.00
59513;BME280;45330;51.634;5.562;2023-04-23T03:29:22;100593.47;;;7.01;100.00
59513;BME280;45330;51.634;5.562;2023-04-23T03:31:48;100558.94;;;6.90;100.00
59513;BME280;45330;51.634;5.562;2023-04-23T03:34:13;100584.88;;;7.04;100.00
59513;BME280;45330;51.634;5.562;2023-04-23T03:36:39;100567.59;;;6.95;100.00
59513;BME280;45330;51.634;5.562;2023-04-23T03:39:04;100594.31;;;6.96;100.00
59513;BME280;45330;51.634;5.562;2023-04-23T03:41:30;100574.47;;;6.89;100.00
59513;BME280;45330;51.634;5.562;2023-04-23T03:43:55;100578.72;;;6.82;100.00
59513;BME280;45330;51.634;5.562;2023-04-23T03:46:20;100574.44;;;6.79;100.00
59513;BME280;45330;51.634;5.562;2023-04-23T03:48:46;100569.25;;;6.79;100.00
59513;BME280;45330;51.634;5.562;2023-04-23T03:51:11;100586.53;;;6.91;100.00
59513;BME280;45330;51.634;5.562;2023-04-23T03:53:36;100582.28;;;6.96;100.00
59513;BME280;45330;51.634;5.562;2023-04-23T03:56:02;100558.94;;;6.90;100.00
59513;BME280;45330;51.634;5.562;2023-04-23T03:58:27;100568.44;;;6.94;100.00
59513;BME280;45330;51.634;5.562;2023-04-23T04:00:52;100570.19;;;7.01;100.00
59513;BME280;45330;51.634;5.562;2023-04-23T04:03:18;100580.59;;;7.15;100.00
59513;BME280;45330;51.634;5.562;2023-04-23T04:05:43;100576.31;;;7.17;100.00
59513;BME280;45330;51.634;5.562;2023-04-23T04:08:09;100564.22;;;7.12;100.00
59513;BME280;45330;51.634;5.562;2023-04-23T04:10:35;100582.34;;;7.24;100.00
59513;BME280;45330;51.634;5.562;2023-04-23T04:13:00;100579.75;;;7.24;100.00
59513;BME280;45330;51.634;5.562;2023-04-23T04:15:26;100597.06;;;7.31;100.00
59513;BME280;45330;51.634;5.562;2023-04-23T04:17:51;100594.47;;;7.31;100.00
59513;BME280;45330;51.634;5.562;2023-04-23T04:20:17;100595.34;;;7.32;100.00
59513;BME280;45330;51.634;5.562;2023-04-23T04:22:42;100600.50;;;7.33;100.00
59513;BME280;45330;51.634;5.562;2023-04-23T04:25:08;100597.06;;;7.36;100.00
59513;BME280;45330;51.634;5.562;2023-04-23T04:27:34;100592.75;;;7.32;100.00
59513;BME280;45330;51.634;5.562;2023-04-23T04:30:00;100585.84;;;7.29;100.00
59513;BME280;45330;51.634;5.562;2023-04-23T04:32:26;100591.91;;;7.36;100.00
59513;BME280;45330;51.634;5.562;2023-04-23T04:34:52;100576.31;;;7.28;100.00
59513;BME280;45330;51.634;5.562;2023-04-23T04:37:18;100571.16;;;7.27;100.00
59513;BME280;45330;51.634;5.562;2023-04-23T04:39:44;100601.41;;;7.43;100.00
59513;BME280;45330;51.634;5.562;2023-04-23T04:42:10;100600.56;;;7.46;100.00
59513;BME280;45330;51.634;5.562;2023-04-23T04:44:37;100591.91;;;7.42;100.00
59513;BME280;45330;51.634;5.562;2023-04-23T04:47:03;100594.53;;;7.48;100.00
59513;BME280;45330;51.634;5.562;2023-04-23T04:49:29;100585.88;;;7.46;100.00
59513;BME280;45330;51.634;5.562;2023-04-23T04:51:54;100584.13;;;7.37;100.00
59513;BME280;45330;51.634;5.562;2023-04-23T04:54:19;100594.50;;;7.44;100.00
59513;BME280;45330;51.634;5.562;2023-04-23T04:56:45;100590.16;;;7.38;100.00
59513;BME280;45330;51.634;5.562;2023-04-23T04:59:11;100587.56;;;7.35;100.00
59513;BME280;45330;51.634;5.562;2023-04-23T05:01:36;100587.56;;;7.30;100.00
59513;BME280;45330;51.634;5.562;2023-04-23T05:04:02;100590.16;;;7.30;100.00
59513;BME280;45330;51.634;5.562;2023-04-23T05:06:28;100584.97;;;7.29;100.00
59513;BME280;45330;51.634;5.562;2023-04-23T05:08:53;100597.94;;;7.32;100.00
59513;BME280;45330;51.634;5.562;2023-04-23T05:11:19;100585.00;;;7.41;100.00
59513;BME280;45330;51.634;5.562;2023-04-23T05:13:48;100602.34;;;8.38;100.00
59513;BME280;45330;51.634;5.562;2023-04-23T05:16:13;100571.03;;;9.14;100.00
59513;BME280;45330;51.634;5.562;2023-04-23T05:18:40;100567.00;;;10.06;100.00
59513;BME280;45330;51.634;5.562;2023-04-23T05:21:06;100575.19;;;10.62;100.00
59513;BME280;45330;51.634;5.562;2023-04-23T05:23:32;100587.47;;;11.21;100.00
59513;BME280;45330;51.634;5.562;2023-04-23T05:25:58;100574.72;;;11.01;100.00
59513;BME280;45330;51.634;5.562;2023-04-23T05:28:24;100579.88;;;10.20;100.00
59513;BME280;45330;51.634;5.562;2023-04-23T05:30:50;100581.25;;;9.51;100.00
59513;BME280;45330;51.634;5.562;2023-04-23T05:33:15;100573.69;;;9.04;100.00
59513;BME280;45330;51.634;5.562;2023-04-23T05:35:41;100561.91;;;9.93;100.00
59513;BME280;45330;51.634;5.562;2023-04-23T05:38:07;100565.50;;;11.42;100.00
59513;BME280;45330;51.634;5.562;2023-04-23T05:40:32;100581.06;;;12.07;100.00
59513;BME280;45330;51.634;5.562;2023-04-23T05:42:58;100568.03;;;12.06;100.00
59513;BME280;45330;51.634;5.562;2023-04-23T05:45:24;100565.09;;;11.70;100.00
59513;BME280;45330;51.634;5.562;2023-04-23T05:47:49;100569.16;;;11.28;100.00
59513;BME280;45330;51.634;5.562;2023-04-23T05:50:16;100571.31;;;10.97;100.00
59513;BME280;45330;51.634;5.562;2023-04-23T05:52:41;100582.66;;;10.90;100.00
59513;BME280;45330;51.634;5.562;2023-04-23T05:55:07;100581.38;;;10.49;100.00
59513;BME280;45330;51.634;5.562;2023-04-23T05:57:36;100562.72;;;10.00;100.00
59513;BME280;45330;51.634;5.562;2023-04-23T06:00:03;100576.31;;;10.30;100.00
59513;BME280;45330;51.634;5.562;2023-04-23T06:02:29;100560.31;;;11.40;100.00
59513;BME280;45330;51.634;5.562;2023-04-23T06:04:55;100566.56;;;12.41;100.00
59513;BME280;45330;51.634;5.562;2023-04-23T06:07:20;100571.53;;;13.42;100.00
59513;BME280;45330;51.634;5.562;2023-04-23T06:09:46;100562.53;;;14.28;100.00
59513;BME280;45330;51.634;5.562;2023-04-23T06:12:11;100578.19;;;14.95;100.00
59513;BME280;45330;51.634;5.562;2023-04-23T06:14:36;100561.56;;;15.24;100.00
59513;BME280;45330;51.634;5.562;2023-04-23T06:17:02;100580.13;;;15.75;100.00
59513;BME280;45330;51.634;5.562;2023-04-23T06:19:27;100579.75;;;14.69;100.00
59513;BME280;45330;51.634;5.562;2023-04-23T06:21:53;100577.06;;;13.27;100.00
59513;BME280;45330;51.634;5.562;2023-04-23T06:24:18;100553.88;;;12.21;100.00
59513;BME280;45330;51.634;5.562;2023-04-23T06:26:44;100546.25;;;11.54;100.00
59513;BME280;45330;51.634;5.562;2023-04-23T06:29:10;100562.34;;;11.16;100.00
59513;BME280;45330;51.634;5.562;2023-04-23T06:31:36;100559.38;;;10.79;100.00
59513;BME280;45330;51.634;5.562;2023-04-23T06:34:01;100554.44;;;10.54;100.00
59513;BME280;45330;51.634;5.562;2023-04-23T06:36:27;100556.31;;;10.40;100.00
59513;BME280;45330;51.634;5.562;2023-04-23T06:38:52;100542.50;;;10.30;100.00
59513;BME280;45330;51.634;5.562;2023-04-23T06:41:18;100545.09;;;10.35;100.00
59513;BME280;45330;51.634;5.562;2023-04-23T06:43:43;100545.97;;;10.29;100.00
59513;BME280;45330;51.634;5.562;2023-04-23T06:46:10;100537.34;;;10.25;100.00
59513;BME280;45330;51.634;5.562;2023-04-23T06:48:35;100525.22;;;10.24;100.00
59513;BME280;45330;51.634;5.562;2023-04-23T06:51:01;100532.91;;;10.34;100.00
59513;BME280;45330;51.634;5.562;2023-04-23T06:53:27;100551.94;;;10.43;100.00
59513;BME280;45330;51.634;5.562;2023-04-23T06:55:52;100540.63;;;10.47;100.00
59513;BME280;45330;51.634;5.562;2023-04-23T06:58:18;100537.06;;;10.58;100.00
59513;BME280;45330;51.634;5.562;2023-04-23T07:00:43;100523.22;;;10.54;100.00
59513;BME280;45330;51.634;5.562;2023-04-23T07:03:09;100536.88;;;10.70;100.00
59513;BME280;45330;51.634;5.562;2023-04-23T07:05:34;100530.78;;;10.74;100.00
59513;BME280;45330;51.634;5.562;2023-04-23T07:08:00;100521.28;;;10.73;100.00
59513;BME280;45330;51.634;5.562;2023-04-23T07:10:25;100533.25;;;10.85;100.00
59513;BME280;45330;51.634;5.562;2023-04-23T07:12:50;100532.28;;;10.94;100.00
59513;BME280;45330;51.634;5.562;2023-04-23T07:15:16;100508.84;;;10.94;100.00
59513;BME280;45330;51.634;5.562;2023-04-23T07:17:41;100507.97;;;10.95;100.00
59513;BME280;45330;51.634;5.562;2023-04-23T07:20:07;100526.72;;;11.20;100.00
59513;BME280;45330;51.634;5.562;2023-04-23T07:22:33;100528.44;;;11.23;100.00
59513;BME280;45330;51.634;5.562;2023-04-23T07:24:59;100523.13;;;11.29;100.00
59513;BME280;45330;51.634;5.562;2023-04-23T07:27:25;100510.22;;;11.23;100.00
59513;BME280;45330;51.634;5.562;2023-04-23T07:29:51;100509.28;;;11.27;100.00
59513;BME280;45330;51.634;5.562;2023-04-23T07:32:16;100513.59;;;11.29;100.00
59513;BME280;45330;51.634;5.562;2023-04-23T07:34:42;100527.28;;;11.42;100.00
59513;BME280;45330;51.634;5.562;2023-04-23T07:37:07;100525.50;;;11.46;100.00
59513;BME280;45330;51.634;5.562;2023-04-23T07:39:33;100532.34;;;11.55;100.00
59513;BME280;45330;51.634;5.562;2023-04-23T07:41:59;100530.44;;;11.63;100.00
59513;BME280;45330;51.634;5.562;2023-04-23T07:44:24;100501.06;;;11.53;100.00
59513;BME280;45330;51.634;5.562;2023-04-23T07:46:50;100520.75;;;11.71;100.00
59513;BME280;45330;51.634;5.562;2023-04-23T07:49:16;100502.63;;;11.65;100.00
59513;BME280;45330;51.634;5.562;2023-04-23T07:51:41;100513.75;;;11.76;100.00
59513;BME280;45330;51.634;5.562;2023-04-23T07:54:08;100490.38;;;11.68;100.00
59513;BME280;45330;51.634;5.562;2023-04-23T07:56:34;100495.34;;;11.84;100.00
59513;BME280;45330;51.634;5.562;2023-04-23T07:59:00;100501.31;;;11.91;100.00
59513;BME280;45330;51.634;5.562;2023-04-23T08:01:26;100509.75;;;12.08;100.00
59513;BME280;45330;51.634;5.562;2023-04-23T08:03:51;100508.88;;;12.08;100.00
59513;BME280;45330;51.634;5.562;2023-04-23T08:06:20;100506.16;;;12.15;100.00
59513;BME280;45330;51.634;5.562;2023-04-23T08:08:45;100478.50;;;12.05;100.00
59513;BME280;45330;51.634;5.562;2023-04-23T08:11:10;100507.75;;;12.23;100.00
59513;BME280;45330;51.634;5.562;2023-04-23T08:13:36;100515.31;;;12.38;100.00
59513;BME280;45330;51.634;5.562;2023-04-23T08:16:01;100506.47;;;12.45;100.00
59513;BME280;45330;51.634;5.562;2023-04-23T08:18:27;100501.81;;;12.60;100.00
59513;BME280;45330;51.634;5.562;2023-04-23T08:20:54;100504.38;;;12.63;100.00
59513;BME280;45330;51.634;5.562;2023-04-23T08:23:20;100501.66;;;12.69;100.00
59513;BME280;45330;51.634;5.562;2023-04-23T08:25:45;100509.44;;;12.70;100.00
59513;BME280;45330;51.634;5.562;2023-04-23T08:28:11;100487.78;;;12.65;100.00
59513;BME280;45330;51.634;5.562;2023-04-23T08:30:36;100500.53;;;12.81;100.00
59513;BME280;45330;51.634;5.562;2023-04-23T08:33:01;100504.72;;;12.88;100.00
59513;BME280;45330;51.634;5.562;2023-04-23T08:35:27;100476.13;;;12.82;100.00
59513;BME280;45330;51.634;5.562;2023-04-23T08:37:52;100482.84;;;12.94;100.00
59513;BME280;45330;51.634;5.562;2023-04-23T08:40:18;100491.28;;;13.05;100.00
59513;BME280;45330;51.634;5.562;2023-04-23T08:45:16;100480.53;;;13.19;100.00
59513;BME280;45330;51.634;5.562;2023-04-23T08:47:42;100490.63;;;13.36;100.00
59513;BME280;45330;51.634;5.562;2023-04-23T08:50:10;100472.47;;;13.30;100.00
59513;BME280;45330;51.634;5.562;2023-04-23T08:52:39;100487.97;;;13.39;100.00
59513;BME280;45330;51.634;5.562;2023-04-23T08:55:06;100464.38;;;13.42;100.00
59513;BME280;45330;51.634;5.562;2023-04-23T08:57:36;100490.94;;;13.60;100.00
59513;BME280;45330;51.634;5.562;2023-04-23T09:00:03;100473.31;;;13.68;100.00
59513;BME280;45330;51.634;5.562;2023-04-23T09:02:33;100473.81;;;13.82;100.00
59513;BME280;45330;51.634;5.562;2023-04-23T09:05:01;100462.59;;;13.79;100.00
59513;BME280;45330;51.634;5.562;2023-04-23T09:07:27;100482.13;;;14.00;100.00
59513;BME280;45330;51.634;5.562;2023-04-23T09:09:53;100486.91;;;14.17;100.00
59513;BME280;45330;51.634;5.562;2023-04-23T09:12:19;100488.16;;;14.35;100.00
59513;BME280;45330;51.634;5.562;2023-04-23T09:14:45;100480.81;;;14.48;100.00
59513;BME280;45330;51.634;5.562;2023-04-23T09:17:10;100484.19;;;14.53;100.00
59513;BME280;45330;51.634;5.562;2023-04-23T09:19:38;100475.34;;;14.57;100.00
59513;BME280;45330;51.634;5.562;2023-04-23T09:22:04;100458.19;;;14.45;100.00
59513;BME280;45330;51.634;5.562;2023-04-23T09:24:29;100459.84;;;14.49;100.00
59513;BME280;45330;51.634;5.562;2023-04-23T09:26:56;100466.69;;;14.53;100.00
59513;BME280;45330;51.634;5.562;2023-04-23T09:29:23;100481.69;;;14.80;100.00
59513;BME280;45330;51.634;5.562;2023-04-23T09:31:50;100465.84;;;14.84;100.00
59513;BME280;45330;51.634;5.562;2023-04-23T09:34:17;100477.44;;;15.05;100.00
59513;BME280;45330;51.634;5.562;2023-04-23T09:36:48;100478.72;;;15.20;100.00
59513;BME280;45330;51.634;5.562;2023-04-23T09:39:16;100453.97;;;15.29;100.00
59513;BME280;45330;51.634;5.562;2023-04-23T09:41:42;100454.28;;;15.47;100.00
59513;BME280;45330;51.634;5.562;2023-04-23T09:44:09;100450.59;;;15.52;100.00
59513;BME280;45330;51.634;5.562;2023-04-23T09:46:40;100460.63;;;15.66;100.00
59513;BME280;45330;51.634;5.562;2023-04-23T09:49:07;100437.50;;;15.79;100.00
59513;BME280;45330;51.634;5.562;2023-04-23T09:51:46;100465.72;;;15.98;100.00
59513;BME280;45330;51.634;5.562;2023-04-23T09:54:13;100464.69;;;16.02;100.00
59513;BME280;45330;51.634;5.562;2023-04-23T09:56:40;100472.75;;;16.22;97.44
59513;BME280;45330;51.634;5.562;2023-04-23T09:59:23;100459.19;;;16.35;100.00
59513;BME280;45330;51.634;5.562;2023-04-23T10:01:50;100434.19;;;16.24;87.75
59513;BME280;45330;51.634;5.562;2023-04-23T10:04:22;100446.38;;;16.49;94.24
59513;BME280;45330;51.634;5.562;2023-04-23T10:06:55;100444.78;;;16.45;89.06
59513;BME280;45330;51.634;5.562;2023-04-23T10:09:22;100462.97;;;16.51;82.99
59513;BME280;45330;51.634;5.562;2023-04-23T10:11:53;100453.06;;;16.58;83.66
59513;BME280;45330;51.634;5.562;2023-04-23T10:14:20;100463.63;;;16.80;80.27
59513;BME280;45330;51.634;5.562;2023-04-23T10:16:49;100437.81;;;16.91;76.86
59513;BME280;45330;51.634;5.562;2023-04-23T10:19:18;100438.53;;;17.19;76.91
59513;BME280;45330;51.634;5.562;2023-04-23T10:21:48;100425.88;;;17.27;76.63
59513;BME280;45330;51.634;5.562;2023-04-23T10:24:16;100425.25;;;17.42;76.39
59513;BME280;45330;51.634;5.562;2023-04-23T10:26:45;100429.25;;;17.53;74.09
59513;BME280;45330;51.634;5.562;2023-04-23T10:29:13;100452.47;;;17.84;71.61
59513;BME280;45330;51.634;5.562;2023-04-23T10:31:41;100447.28;;;17.82;70.70
59513;BME280;45330;51.634;5.562;2023-04-23T10:34:09;100443.66;;;17.85;70.22
59513;BME280;45330;51.634;5.562;2023-04-23T10:36:36;100449.38;;;17.74;68.42
59513;BME280;45330;51.634;5.562;2023-04-23T10:39:01;100422.34;;;17.50;68.78
59513;BME280;45330;51.634;5.562;2023-04-23T10:41:38;100428.38;;;17.52;71.97
59513;BME280;45330;51.634;5.562;2023-04-23T10:44:05;100431.13;;;17.49;69.19
59513;BME280;45330;51.634;5.562;2023-04-23T10:46:32;100433.00;;;17.47;72.36
59513;BME280;45330;51.634;5.562;2023-04-23T10:49:24;100429.03;;;17.57;74.38
59513;BME280;45330;51.634;5.562;2023-04-23T10:54:30;100418.72;;;17.53;74.22
59513;BME280;45330;51.634;5.562;2023-04-23T10:57:01;100400.09;;;17.57;72.82
59513;BME280;45330;51.634;5.562;2023-04-23T10:59:28;100408.72;;;17.61;70.14
59513;BME280;45330;51.634;5.562;2023-04-23T11:01:58;100408.53;;;17.65;70.73
59513;BME280;45330;51.634;5.562;2023-04-23T11:04:29;100401.88;;;17.77;69.72
59513;BME280;45330;51.634;5.562;2023-04-23T11:06:57;100407.59;;;17.87;69.01
59513;BME280;45330;51.634;5.562;2023-04-23T11:09:46;100403.47;;;18.02;69.68
59513;BME280;45330;51.634;5.562;2023-04-23T11:12:29;100388.00;;;18.34;71.02
59513;BME280;45330;51.634;5.562;2023-04-23T11:15:00;100389.88;;;18.51;67.18
59513;BME280;45330;51.634;5.562;2023-04-23T11:20:19;100388.72;;;18.57;70.07
59513;BME280;45330;51.634;5.562;2023-04-23T11:22:46;100385.13;;;18.58;67.21
59513;BME280;45330;51.634;5.562;2023-04-23T11:25:13;100378.88;;;18.79;67.05
59513;BME280;45330;51.634;5.562;2023-04-23T11:27:43;100366.28;;;18.67;66.13
59513;BME280;45330;51.634;5.562;2023-04-23T11:30:11;100369.84;;;18.47;63.92
59513;BME280;45330;51.634;5.562;2023-04-23T11:32:38;100368.19;;;18.25;62.60
59513;BME280;45330;51.634;5.562;2023-04-23T11:35:06;100357.16;;;17.98;64.72
59513;BME280;45330;51.634;5.562;2023-04-23T11:37:32;100363.06;;;18.03;64.86
59513;BME280;45330;51.634;5.562;2023-04-23T11:40:04;100336.16;;;17.96;66.14
59513;BME280;45330;51.634;5.562;2023-04-23T11:42:30;100340.50;;;17.97;63.98
59513;BME280;45330;51.634;5.562;2023-04-23T11:44:56;100330.03;;;17.96;64.87
59513;BME280;45330;51.634;5.562;2023-04-23T11:47:24;100322.06;;;17.97;65.64
59513;BME280;45330;51.634;5.562;2023-04-23T11:49:50;100332.03;;;18.10;65.54
59513;BME280;45330;51.634;5.562;2023-04-23T11:52:15;100330.34;;;18.09;65.44
59513;BME280;45330;51.634;5.562;2023-04-23T11:54:41;100315.03;;;17.98;65.49
59513;BME280;45330;51.634;5.562;2023-04-23T11:57:06;100313.34;;;18.16;66.75
59513;BME280;45330;51.634;5.562;2023-04-23T11:59:34;100316.94;;;18.32;64.54
59513;BME280;45330;51.634;5.562;2023-04-23T12:01:59;100318.81;;;18.30;63.52
59513;BME280;45330;51.634;5.562;2023-04-23T12:04:30;100299.44;;;18.31;62.93
59513;BME280;45330;51.634;5.562;2023-04-23T12:06:56;100314.59;;;18.45;61.75
59513;BME280;45330;51.634;5.562;2023-04-23T12:09:25;100303.59;;;18.55;62.15
59513;BME280;45330;51.634;5.562;2023-04-23T12:11:51;100304.50;;;18.73;59.42
59513;BME280;45330;51.634;5.562;2023-04-23T12:14:19;100290.09;;;18.80;60.32
59513;BME280;45330;51.634;5.562;2023-04-23T12:16:46;100309.38;;;18.99;60.14
59513;BME280;45330;51.634;5.562;2023-04-23T12:19:24;100289.97;;;19.18;59.64
59513;BME280;45330;51.634;5.562;2023-04-23T12:21:52;100284.25;;;19.27;57.60
59513;BME280;45330;51.634;5.562;2023-04-23T12:24:25;100281.19;;;19.35;57.48
59513;BME280;45330;51.634;5.562;2023-04-23T12:26:56;100282.94;;;19.52;59.05
59513;BME280;45330;51.634;5.562;2023-04-23T12:29:23;100280.47;;;19.49;59.39
59513;BME280;45330;51.634;5.562;2023-04-23T12:31:51;100260.22;;;19.16;58.59
59513;BME280;45330;51.634;5.562;2023-04-23T12:34:18;100268.09;;;18.98;58.93
59513;BME280;45330;51.634;5.562;2023-04-23T12:36:52;100253.09;;;18.64;59.66
59513;BME280;45330;51.634;5.562;2023-04-23T12:41:51;100255.50;;;18.68;59.92
59513;BME280;45330;51.634;5.562;2023-04-23T12:44:17;100226.28;;;18.73;58.79
59513;BME280;45330;51.634;5.562;2023-04-23T12:46:42;100235.69;;;19.14;58.65
59513;BME280;45330;51.634;5.562;2023-04-23T12:49:08;100248.88;;;19.31;58.42
59513;BME280;45330;51.634;5.562;2023-04-23T12:51:33;100242.69;;;19.48;58.23